Time;durP1;ratioP1;P1;durP2;ratioP2;P2;SDS_P1;SDS_P2;PMS_P1;PMS_P2;Temp;Humidity;BMP_temperature;BMP_pressure;BME280_temperature;BME280_humidity;BME280_pressure;Samples;Min_cycle;Max_cycle;Signal;HPM_P1;HPM_P2
2023/03/11 00:00:12;;;;;;;9.33;1.00;;;;;;;-2.16;100.00;100608.25;5066119;28;20029;-90
2023/03/11 00:02:37;;;;;;;8.18;1.23;;;;;;;-2.09;100.00;100603.09;5062374;28;20026;-90
2023/03/11 00:05:03;;;;;;;7.17;0.90;;;;;;;-1.94;100.00;100611.00;5036770;28;20067;-90
2023/03/11 00:07:28;;;;;;;6.50;0.90;;;;;;;-1.93;100.00;100607.38;5076233;28;20036;-91
2023/03/11 00:09:53;;;;;;;11.90;1.00;;;;;;;-1.96;100.00;100607.72;5068459;28;20119;-91
2023/03/11 00:12:18;;;;;;;14.40;0.90;;;;;;;-2.04;100.00;100598.97;5056574;28;20303;-91
2023/03/11 00:14:44;;;;;;;8.43;0.67;;;;;;;-2.06;100.00;100619.31;5057459;28;20041;-91
2023/03/11 00:17:09;;;;;;;10.33;1.13;;;;;;;-2.17;100.00;100602.19;5054912;28;20469;-91
2023/03/11 00:19:34;;;;;;;11.10;0.93;;;;;;;-2.22;100.00;100611.59;5055633;28;20029;-90
2023/03/11 00:22:01;;;;;;;10.67;0.60;;;;;;;-2.26;100.00;100615.56;5066677;28;20032;-90
2023/03/11 00:24:27;;;;;;;10.48;0.82;;;;;;;-2.31;100.00;100619.53;5079727;28;20067;-91
2023/03/11 00:26:52;;;;;;;12.73;0.67;;;;;;;-2.38;100.00;100623.88;5067343;28;20021;-91
2023/03/11 00:29:17;;;;;;;9.00;0.87;;;;;;;-2.38;100.00;100634.38;5065459;28;20032;-91
2023/03/11 00:31:43;;;;;;;8.70;0.80;;;;;;;-2.40;100.00;100631.13;5069513;28;20021;-91
2023/03/11 00:34:08;;;;;;;5.90;0.67;;;;;;;-2.49;100.00;100629.53;5070721;28;20460;-90
2023/03/11 00:36:33;;;;;;;6.33;0.90;;;;;;;-2.51;100.00;100631.53;5071192;28;20022;-90
2023/03/11 00:39:01;;;;;;;6.77;0.97;;;;;;;-2.50;100.00;100644.47;5089057;28;20052;-90
2023/03/11 00:41:27;;;;;;;3.75;0.82;;;;;;;-2.55;100.00;100641.56;5073504;28;20032;-91
2023/03/11 00:43:52;;;;;;;10.75;1.05;;;;;;;-2.55;100.00;100651.22;5059918;28;20083;-91
2023/03/11 00:46:17;;;;;;;14.17;1.17;;;;;;;-2.57;100.00;100658.47;5055857;28;20025;-91
2023/03/11 00:48:42;;;;;;;8.70;1.23;;;;;;;-2.60;100.00;100655.22;5056100;28;20098;-90
2023/03/11 00:51:14;;;;;;;9.63;1.20;;;;;;;-2.64;100.00;100660.97;5055843;28;20391;-91
2023/03/11 00:53:40;;;;;;;9.90;1.17;;;;;;;-2.70;100.00;100644.13;5054874;28;20116;-90
2023/03/11 00:56:11;;;;;;;10.35;1.30;;;;;;;-2.72;100.00;100650.53;5055682;28;20105;-90
2023/03/11 00:58:36;;;;;;;12.98;1.70;;;;;;;-2.73;100.00;100654.94;5035564;28;20037;-90
2023/03/11 01:01:13;;;;;;;13.30;1.50;;;;;;;-2.74;100.00;100655.97;5053853;28;20053;-91
2023/03/11 01:03:38;;;;;;;7.32;1.25;;;;;;;-2.80;100.00;100661.91;5053793;28;20091;-90
2023/03/11 01:06:06;;;;;;;5.77;1.40;;;;;;;-2.82;100.00;100671.75;5035864;28;20033;-90
2023/03/11 01:08:32;;;;;;;12.98;1.52;;;;;;;-2.83;100.00;100676.16;5053513;28;20043;-91
2023/03/11 01:10:57;;;;;;;9.15;1.15;;;;;;;-2.83;100.00;100676.16;5051672;28;20387;-91
2023/03/11 01:13:23;;;;;;;9.57;1.40;;;;;;;-2.87;100.00;100684.56;5051712;28;20160;-91
2023/03/11 01:15:48;;;;;;;7.32;1.23;;;;;;;-2.96;100.00;100679.38;5055981;28;20025;-91
2023/03/11 01:18:14;;;;;;;13.20;1.60;;;;;;;-2.93;100.00;100681.66;5073107;28;20083;-90
2023/03/11 01:20:40;;;;;;;12.27;1.23;;;;;;;-2.88;100.00;100683.75;5073826;28;20059;-90
2023/03/11 01:23:06;;;;;;;11.27;1.50;;;;;;;-2.80;100.00;100696.00;5072645;28;20060;-90
2023/03/11 01:25:32;;;;;;;9.65;1.05;;;;;;;-2.73;100.00;100686.44;5070765;28;20037;-90
2023/03/11 01:27:58;;;;;;;11.93;1.40;;;;;;;-2.73;100.00;100694.31;5064539;28;20036;-90
2023/03/11 01:30:24;;;;;;;9.90;1.10;;;;;;;-2.70;100.00;100695.78;5051710;28;20028;-90
2023/03/11 01:32:52;;;;;;;11.80;0.90;;;;;;;-2.76;100.00;100700.72;5053258;28;20021;-90
2023/03/11 01:35:19;;;;;;;11.00;1.48;;;;;;;-2.81;100.00;100696.97;5052329;28;20029;-90
2023/03/11 01:37:45;;;;;;;8.18;1.00;;;;;;;-2.94;100.00;100689.66;5053235;28;20047;-90
2023/03/11 01:40:25;;;;;;;8.70;0.93;;;;;;;-3.03;100.00;100688.91;5033283;28;20527;-90
2023/03/11 01:42:50;;;;;;;9.57;1.45;;;;;;;-3.12;100.00;100689.94;5050765;28;20522;-89
2023/03/11 01:45:27;;;;;;;6.83;1.10;;;;;;;-3.15;100.00;100688.44;5054124;28;20029;-90
2023/03/11 01:47:53;;;;;;;10.43;1.02;;;;;;;-3.24;100.00;100686.88;5052930;28;20037;-90
2023/03/11 01:50:18;;;;;;;4.60;1.07;;;;;;;-3.26;100.00;100696.69;5051027;28;20472;-90
2023/03/11 01:52:44;;;;;;;9.27;1.52;;;;;;;-3.29;100.00;100692.63;5041481;28;20494;-90
2023/03/11 01:55:12;;;;;;;7.67;1.00;;;;;;;-3.32;100.00;100698.19;5072965;28;20091;-90
2023/03/11 01:57:40;;;;;;;6.35;1.10;;;;;;;-3.30;100.00;100700.63;5055051;28;20028;-89
2023/03/11 02:00:10;;;;;;;9.82;1.33;;;;;;;-3.36;100.00;100699.50;5052461;28;20043;-90
2023/03/11 02:02:41;;;;;;;7.15;1.67;;;;;;;-3.32;100.00;100695.56;5052642;28;20020;-90
2023/03/11 02:05:07;;;;;;;7.90;1.40;;;;;;;-3.35;100.00;100706.41;5034747;28;20025;-89
2023/03/11 02:07:32;;;;;;;12.27;1.97;;;;;;;-3.42;100.00;100703.63;5062537;28;20074;-89
2023/03/11 02:09:58;;;;;;;7.28;1.50;;;;;;;-3.41;100.00;100701.81;5021002;28;20025;-88
2023/03/11 02:12:24;;;;;;;11.30;1.83;;;;;;;-3.35;100.00;100685.44;5051096;28;20130;-89
2023/03/11 02:14:52;;;;;;;13.27;2.20;;;;;;;-3.28;100.00;100688.97;5051066;28;20033;-88
2023/03/11 02:17:18;;;;;;;12.83;1.83;;;;;;;-3.31;100.00;100699.84;5068765;28;20063;-89
2023/03/11 02:20:01;;;;;;;7.27;1.80;;;;;;;-3.35;100.00;100703.78;5051013;28;20781;-89
2023/03/11 02:22:32;;;;;;;10.10;1.95;;;;;;;-3.35;100.00;100703.78;5048921;28;20033;-90
2023/03/11 02:25:03;;;;;;;5.83;1.93;;;;;;;-3.41;100.00;100707.06;5051088;28;20068;-88
2023/03/11 02:27:35;;;;;;;12.27;1.80;;;;;;;-3.52;100.00;100703.81;5059057;28;20294;-88
2023/03/11 02:30:01;;;;;;;9.43;1.98;;;;;;;-3.60;100.00;100709.06;5053378;28;20033;-87
2023/03/11 02:32:26;;;;;;;8.13;1.80;;;;;;;-3.70;100.00;100703.22;5061316;28;20025;-88
2023/03/11 02:34:52;;;;;;;9.45;1.70;;;;;;;-3.75;100.00;100703.72;5070140;28;20028;-88
2023/03/11 02:37:18;;;;;;;8.80;1.63;;;;;;;-3.74;100.00;100710.56;5068273;28;20073;-88
2023/03/11 02:39:48;;;;;;;8.30;1.53;;;;;;;-3.78;100.00;100705.81;5063559;28;20056;-88
2023/03/11 02:42:27;;;;;;;16.45;1.70;;;;;;;-3.78;100.00;100716.31;5063831;28;20048;-89
2023/03/11 02:45:09;;;;;;;10.73;1.38;;;;;;;-3.77;100.00;100704.84;5050313;28;20035;-88
2023/03/11 02:47:36;;;;;;;11.80;1.35;;;;;;;-3.70;100.00;100696.16;5049796;28;20484;-89
2023/03/11 02:50:02;;;;;;;4.68;1.33;;;;;;;-3.65;100.00;100703.50;5038642;28;20111;-88
2023/03/11 02:52:30;;;;;;;7.57;1.70;;;;;;;-3.59;100.00;100718.56;5043833;28;20024;-88
2023/03/11 02:54:56;;;;;;;10.43;1.57;;;;;;;-3.60;100.00;100705.66;5070344;28;20324;-88
2023/03/11 02:57:21;;;;;;;14.18;1.73;;;;;;;-3.63;100.00;100696.31;5070592;28;20028;-88
2023/03/11 02:59:46;;;;;;;12.53;1.80;;;;;;;-3.64;100.00;100694.66;5070117;28;20071;-88
2023/03/11 03:02:12;;;;;;;10.30;1.53;;;;;;;-3.71;100.00;100696.34;5053063;28;20498;-89
2023/03/11 03:04:37;;;;;;;9.07;1.60;;;;;;;-3.75;100.00;100702.88;5051469;28;20040;-89
2023/03/11 03:07:02;;;;;;;12.40;1.30;;;;;;;-3.74;100.00;100700.09;5057026;28;20055;-90
2023/03/11 03:09:28;;;;;;;11.63;1.77;;;;;;;-3.77;100.00;100710.91;5067100;28;20391;-89
2023/03/11 03:11:53;;;;;;;8.50;1.03;;;;;;;-3.83;100.00;100706.31;5049621;28;20068;-89
2023/03/11 03:14:18;;;;;;;6.05;1.38;;;;;;;-3.83;100.00;100707.13;5049535;28;20052;-90
2023/03/11 03:16:43;;;;;;;10.90;1.57;;;;;;;-3.82;100.00;100724.47;5048996;28;20063;-89
2023/03/11 03:19:09;;;;;;;7.20;1.40;;;;;;;-3.78;100.00;100724.16;5049179;28;20055;-89
2023/03/11 03:21:34;;;;;;;5.43;1.30;;;;;;;-3.80;100.00;100727.75;5050699;28;20017;-89
2023/03/11 03:23:59;;;;;;;7.40;1.80;;;;;;;-3.77;100.00;100734.47;5045835;28;20021;-90
2023/03/11 03:26:25;;;;;;;15.13;1.80;;;;;;;-3.84;100.00;100742.19;5048577;28;20048;-90
2023/03/11 03:28:50;;;;;;;7.37;1.43;;;;;;;-3.86;100.00;100741.53;5047682;28;20120;-89
2023/03/11 03:31:15;;;;;;;4.50;1.27;;;;;;;-3.76;100.00;100753.63;5049962;28;20079;-89
2023/03/11 03:33:40;;;;;;;9.77;1.30;;;;;;;-3.78;100.00;100747.72;5050248;28;20036;-90
2023/03/11 03:36:08;;;;;;;9.47;1.70;;;;;;;-3.65;100.00;100758.50;5068729;28;20027;-89
2023/03/11 03:38:34;;;;;;;8.02;1.52;;;;;;;-3.63;100.00;100761.78;5070005;28;20024;-90
2023/03/11 03:40:59;;;;;;;15.97;2.20;;;;;;;-3.64;100.00;100757.53;5038497;28;20392;-89
2023/03/11 03:43:24;;;;;;;14.57;1.50;;;;;;;-3.59;100.00;100765.72;5049050;28;20029;-90
2023/03/11 03:45:58;;;;;;;7.77;1.57;;;;;;;-3.55;100.00;100772.25;5048006;28;20111;-90
2023/03/11 03:48:23;;;;;;;14.32;1.50;;;;;;;-3.58;100.00;100772.59;5050106;28;20032;-90
2023/03/11 03:50:49;;;;;;;11.50;1.40;;;;;;;-3.52;100.00;100785.03;5048982;28;20379;-90
2023/03/11 03:53:14;;;;;;;12.33;1.50;;;;;;;-3.48;100.00;100777.66;5048584;28;20044;-89
2023/03/11 03:55:39;;;;;;;15.00;1.90;;;;;;;-3.50;100.00;100777.00;5059845;28;20052;-90
2023/03/11 03:58:04;;;;;;;3.97;1.40;;;;;;;-3.52;100.00;100784.22;5046648;28;20387;-89
2023/03/11 04:00:30;;;;;;;4.97;1.67;;;;;;;-3.47;100.00;100779.28;5049250;28;20033;-89
2023/03/11 04:02:56;;;;;;;15.68;1.45;;;;;;;-3.51;100.00;100778.81;5040811;28;20043;-89
2023/03/11 04:05:21;;;;;;;2.87;1.17;;;;;;;-3.47;100.00;100787.16;5069780;28;20047;-89
2023/03/11 04:07:47;;;;;;;7.63;1.30;;;;;;;-3.53;100.00;100778.16;5054201;28;20029;-90
2023/03/11 04:10:12;;;;;;;8.37;1.30;;;;;;;-3.55;100.00;100782.75;5059888;28;20029;-89
2023/03/11 04:12:38;;;;;;;8.95;1.67;;;;;;;-3.53;100.00;100788.63;5049003;28;20439;-90
2023/03/11 04:15:04;;;;;;;5.33;1.50;;;;;;;-3.58;100.00;100783.06;5046588;28;20037;-89
2023/03/11 04:17:29;;;;;;;10.20;1.80;;;;;;;-3.67;100.00;100786.69;5069731;28;20116;-90
2023/03/11 04:19:54;;;;;;;9.02;1.50;;;;;;;-3.73;100.00;100797.81;5065366;28;20038;-90
2023/03/11 04:22:19;;;;;;;16.00;1.63;;;;;;;-3.78;100.00;100792.25;5047881;28;20025;-89
2023/03/11 04:24:45;;;;;;;6.77;1.47;;;;;;;-3.88;100.00;100781.94;5049518;28;20566;-90
2023/03/11 04:27:10;;;;;;;5.83;1.37;;;;;;;-3.87;100.00;100800.13;5048314;28;20028;-90
2023/03/11 04:29:35;;;;;;;9.77;1.40;;;;;;;-3.92;100.00;100793.69;5030731;28;20037;-89
2023/03/11 04:32:01;;;;;;;7.83;1.23;;;;;;;-3.98;100.00;100803.03;5062253;28;20509;-90
2023/03/11 04:34:26;;;;;;;8.13;1.57;;;;;;;-4.01;100.00;100800.72;5070400;28;20115;-89
2023/03/11 04:36:53;;;;;;;5.03;1.40;;;;;;;-4.05;100.00;100797.63;5046672;28;20028;-89
2023/03/11 04:39:18;;;;;;;9.88;1.33;;;;;;;-4.05;100.00;100805.47;5051073;28;20080;-90
2023/03/11 04:41:44;;;;;;;8.85;1.58;;;;;;;-4.11;100.00;100801.72;5067219;28;20133;-90
2023/03/11 04:44:09;;;;;;;8.70;1.50;;;;;;;-4.16;100.00;100790.09;5061189;28;20039;-90
2023/03/11 04:46:34;;;;;;;5.83;1.07;;;;;;;-4.21;100.00;100800.22;5050046;28;20029;-90
2023/03/11 04:48:59;;;;;;;5.07;1.27;;;;;;;-4.28;100.00;100793.00;5047603;28;20184;-90
2023/03/11 04:51:25;;;;;;;9.57;1.67;;;;;;;-4.36;100.00;100797.41;5049563;28;20029;-89
2023/03/11 04:53:50;;;;;;;7.90;1.43;;;;;;;-4.38;100.00;100794.97;5048510;28;20044;-90
2023/03/11 04:56:15;;;;;;;7.17;1.50;;;;;;;-4.45;100.00;100792.16;5049546;28;20041;-89
2023/03/11 04:58:41;;;;;;;8.82;1.80;;;;;;;-4.46;100.00;100794.94;5053952;28;20052;-89
2023/03/11 05:01:06;;;;;;;9.40;1.50;;;;;;;-4.52;100.00;100795.59;5053793;28;20108;-89
2023/03/11 05:03:31;;;;;;;8.50;1.87;;;;;;;-4.56;100.00;100790.66;5072737;28;20024;-89
2023/03/11 05:05:58;;;;;;;9.07;1.70;;;;;;;-4.54;100.00;100802.78;5052177;28;20119;-89
2023/03/11 05:08:25;;;;;;;5.82;1.70;;;;;;;-4.57;100.00;100804.72;5052592;28;20495;-89
2023/03/11 05:10:51;;;;;;;6.03;1.60;;;;;;;-4.60;100.00;100806.84;5052113;28;20056;-89
2023/03/11 05:13:19;;;;;;;9.53;1.73;;;;;;;-4.65;100.00;100798.63;5053175;28;20043;-89
2023/03/11 05:15:47;;;;;;;10.20;1.40;;;;;;;-4.64;100.00;100808.13;5032791;28;20327;-89
2023/03/11 05:18:13;;;;;;;2.15;1.50;;;;;;;-4.69;100.00;100805.16;5051315;28;20479;-89
2023/03/11 05:20:38;;;;;;;7.10;1.58;;;;;;;-4.67;100.00;100806.66;5051683;28;20060;-90
2023/03/11 05:23:04;;;;;;;13.03;1.40;;;;;;;-4.69;100.00;100816.44;5051021;28;20029;-89
2023/03/11 05:25:30;;;;;;;5.83;1.53;;;;;;;-4.73;100.00;100815.94;5056877;28;20047;-89
2023/03/11 05:27:55;;;;;;;7.97;1.63;;;;;;;-4.80;100.00;100814.94;5065617;28;20357;-89
2023/03/11 05:30:21;;;;;;;2.53;1.20;;;;;;;-4.82;100.00;100816.88;5054056;28;20067;-89
2023/03/11 05:32:47;;;;;;;9.53;1.80;;;;;;;-4.83;100.00;100820.47;5070083;28;20090;-90
2023/03/11 05:35:13;;;;;;;7.88;1.58;;;;;;;-4.81;100.00;100838.59;5052687;28;20115;-89
2023/03/11 05:37:38;;;;;;;3.92;1.67;;;;;;;-4.85;100.00;100832.06;5050244;28;20107;-90
2023/03/11 05:40:06;;;;;;;6.07;1.60;;;;;;;-4.82;100.00;100831.72;5055673;28;20511;-89
2023/03/11 05:42:32;;;;;;;8.82;2.28;;;;;;;-4.76;100.00;100834.56;5053339;28;20079;-89
2023/03/11 05:44:57;;;;;;;7.13;1.50;;;;;;;-4.80;100.00;100828.00;5048911;28;20033;-90
2023/03/11 05:47:23;;;;;;;6.68;1.55;;;;;;;-4.79;100.00;100842.72;5033322;28;20033;-91
2023/03/11 05:49:48;;;;;;;8.30;1.40;;;;;;;-4.80;100.00;100846.31;5058671;28;20063;-89
2023/03/11 05:52:14;;;;;;;5.87;1.97;;;;;;;-4.87;100.00;100835.66;5038778;28;20020;-90
2023/03/11 05:54:39;;;;;;;5.63;1.60;;;;;;;-4.92;100.00;100831.84;5072649;28;20383;-90
2023/03/11 05:57:04;;;;;;;6.10;1.60;;;;;;;-4.93;100.00;100843.31;5068655;28;20024;-91
2023/03/11 05:59:31;;;;;;;5.73;1.47;;;;;;;-4.94;100.00;100849.50;5044649;28;20037;-92
2023/03/11 06:01:56;;;;;;;7.47;1.77;;;;;;;-4.98;100.00;100848.97;5050811;28;20032;-88
2023/03/11 06:04:22;;;;;;;3.80;1.77;;;;;;;-4.90;100.00;100854.25;5050932;28;20029;-90
2023/03/11 06:06:47;;;;;;;7.37;1.70;;;;;;;-4.79;100.00;100854.97;5035679;28;20027;-90
2023/03/11 06:09:13;;;;;;;6.63;1.83;;;;;;;-4.76;100.00;100855.50;5050855;28;20103;-92
2023/03/11 06:11:38;;;;;;;10.65;1.67;;;;;;;-4.73;100.00;100851.72;5050997;28;20033;-88
2023/03/11 06:14:04;;;;;;;7.30;2.10;;;;;;;-4.75;100.00;100858.91;5051677;28;20032;-88
2023/03/11 06:16:30;;;;;;;7.78;2.35;;;;;;;-4.78;100.00;100865.28;5050441;28;20064;-87
2023/03/11 06:18:55;;;;;;;7.90;1.90;;;;;;;-4.79;100.00;100861.03;5055922;28;20056;-87
2023/03/11 06:21:23;;;;;;;13.95;2.40;;;;;;;-4.78;100.00;100860.03;5068849;28;20774;-86
2023/03/11 06:23:49;;;;;;;8.37;1.83;;;;;;;-4.78;100.00;100860.03;5070893;28;20082;-87
2023/03/11 06:26:17;;;;;;;6.70;1.90;;;;;;;-4.77;100.00;100872.16;5051824;28;20434;-87
2023/03/11 06:28:44;;;;;;;8.73;2.25;;;;;;;-4.77;100.00;100877.38;5060866;28;20037;-86
2023/03/11 06:31:13;;;;;;;10.52;2.45;;;;;;;-4.78;100.00;100880.97;5067608;28;20037;-87
2023/03/11 06:33:38;;;;;;;14.23;2.97;;;;;;;-4.83;100.00;100885.00;5054002;28;20048;-87
2023/03/11 06:36:04;;;;;;;13.27;3.45;;;;;;;-4.91;100.00;100884.00;5046321;28;20029;-87
2023/03/11 06:38:31;;;;;;;7.97;3.03;;;;;;;-4.91;100.00;100886.59;5058184;28;20016;-88
2023/03/11 06:41:02;;;;;;;7.50;3.27;;;;;;;-4.86;100.00;100888.75;5050358;28;20315;-87
2023/03/11 06:43:28;;;;;;;12.98;3.47;;;;;;;-4.82;100.00;100895.31;5049336;28;20058;-87
2023/03/11 06:45:53;;;;;;;10.98;3.08;;;;;;;-4.78;100.00;100903.66;5048509;28;20494;-87
2023/03/11 06:48:18;;;;;;;12.93;3.17;;;;;;;-4.77;100.00;100907.91;5050172;28;20179;-87
2023/03/11 06:50:44;;;;;;;10.27;3.63;;;;;;;-4.71;100.00;100913.34;5050608;28;20033;-87
2023/03/11 06:53:09;;;;;;;14.73;3.20;;;;;;;-4.63;100.00;100922.22;5043370;28;20044;-87
2023/03/11 06:55:35;;;;;;;9.73;3.40;;;;;;;-4.58;100.00;100919.97;5048732;28;20434;-88
2023/03/11 06:58:00;;;;;;;8.57;2.73;;;;;;;-4.54;100.00;100929.13;5044994;28;20018;-87
2023/03/11 07:00:26;;;;;;;4.67;2.63;;;;;;;-4.51;100.00;100928.81;5044013;28;20033;-88
2023/03/11 07:02:52;;;;;;;12.10;2.13;;;;;;;-4.46;100.00;100941.44;5048519;28;20106;-86
2023/03/11 07:05:17;;;;;;;7.07;2.40;;;;;;;-4.44;100.00;100948.16;5047079;28;20068;-87
2023/03/11 07:07:43;;;;;;;5.30;2.33;;;;;;;-4.38;100.00;100951.94;5051875;28;20055;-87
2023/03/11 07:10:09;;;;;;;7.17;2.23;;;;;;;-4.35;100.00;100942.94;5038989;28;20102;-86
2023/03/11 07:12:35;;;;;;;10.70;2.35;;;;;;;-4.31;100.00;100946.91;5049718;28;20025;-86
2023/03/11 07:15:00;;;;;;;7.20;2.75;;;;;;;-4.29;100.00;100950.19;5049864;28;20036;-86
2023/03/11 07:17:26;;;;;;;7.77;2.50;;;;;;;-4.29;100.00;100952.81;5032498;28;20273;-86
2023/03/11 07:19:52;;;;;;;16.00;2.78;;;;;;;-4.24;100.00;100954.94;5047870;28;20392;-87
2023/03/11 07:22:18;;;;;;;4.88;2.33;;;;;;;-4.18;100.00;100955.13;5049228;28;20035;-87
2023/03/11 07:24:47;;;;;;;9.73;2.70;;;;;;;-4.12;100.00;100959.75;5052853;28;20704;-86
2023/03/11 07:27:13;;;;;;;14.13;3.00;;;;;;;-4.03;100.00;100960.59;5061403;28;20038;-86
2023/03/11 07:29:38;;;;;;;9.53;3.20;;;;;;;-3.90;100.00;100967.19;5069144;28;20028;-85
2023/03/11 07:32:06;;;;;;;12.97;3.40;;;;;;;-3.86;100.00;100958.03;5065373;28;20653;-87
2023/03/11 07:34:32;;;;;;;13.15;3.45;;;;;;;-3.75;100.00;100970.00;5043401;28;20249;-88
2023/03/11 07:36:58;;;;;;;10.95;3.20;;;;;;;-3.73;100.00;100970.69;5055770;28;20112;-87
2023/03/11 07:39:23;;;;;;;11.57;3.10;;;;;;;-3.72;100.00;100962.66;5069753;28;20086;-87
2023/03/11 07:41:48;;;;;;;11.13;3.27;;;;;;;-3.68;100.00;100966.59;5051499;28;20040;-87
2023/03/11 07:44:15;;;;;;;8.73;3.50;;;;;;;-3.64;100.00;100972.31;5062765;28;20025;-87
2023/03/11 07:46:41;;;;;;;9.07;3.15;;;;;;;-3.57;100.00;100977.78;5067717;28;20103;-88
2023/03/11 07:49:07;;;;;;;16.15;3.30;;;;;;;-3.52;100.00;100970.22;5063538;28;20040;-87
2023/03/11 07:51:34;;;;;;;11.65;3.33;;;;;;;-3.47;100.00;100969.75;5070781;28;20032;-88
2023/03/11 07:54:00;;;;;;;15.57;3.30;;;;;;;-3.41;100.00;100982.19;5064950;28;20380;-89
2023/03/11 07:56:29;;;;;;;8.50;2.87;;;;;;;-3.37;100.00;100988.75;5036892;28;20032;-87
2023/03/11 07:58:54;;;;;;;10.73;3.27;;;;;;;-3.31;100.00;100996.00;5070922;28;20275;-88
2023/03/11 08:01:22;;;;;;;10.23;2.78;;;;;;;-3.28;100.00;100993.03;5070804;28;20016;-88
2023/03/11 08:03:49;;;;;;;9.98;3.15;;;;;;;-3.19;100.00;100996.47;5065247;28;20032;-88
2023/03/11 08:06:20;;;;;;;11.77;3.53;;;;;;;-3.12;100.00;101000.09;5051072;28;20033;-88
2023/03/11 08:08:47;;;;;;;9.50;3.63;;;;;;;-3.11;100.00;100990.44;5031842;28;20296;-88
2023/03/11 08:11:13;;;;;;;14.48;3.40;;;;;;;-3.01;100.00;100998.94;5052992;28;20117;-89
2023/03/11 08:13:40;;;;;;;8.55;3.25;;;;;;;-2.96;100.00;101006.31;5052524;28;20021;-89
2023/03/11 08:16:07;;;;;;;17.38;4.00;;;;;;;-2.87;100.00;101012.38;5050190;28;20032;-88
2023/03/11 08:18:33;;;;;;;10.90;3.70;;;;;;;-2.79;100.00;101012.41;5032317;28;20542;-88
2023/03/11 08:21:06;;;;;;;7.85;3.60;;;;;;;-2.69;100.00;101012.22;5050477;28;20116;-88
2023/03/11 08:23:31;;;;;;;8.37;3.67;;;;;;;-2.61;100.00;101013.03;5030844;28;20117;-88
2023/03/11 08:25:57;;;;;;;4.97;3.40;;;;;;;-2.51;100.00;101001.53;5050019;28;20099;-88
2023/03/11 08:28:22;;;;;;;9.70;3.43;;;;;;;-2.37;100.00;101008.72;5052483;28;20028;-88
2023/03/11 08:30:47;;;;;;;13.13;4.10;;;;;;;-2.31;100.00;101004.63;5040910;28;20040;-89
2023/03/11 08:33:13;;;;;;;14.82;3.92;;;;;;;-2.23;100.00;101004.59;5059333;28;20024;-88
2023/03/11 08:35:41;;;;;;;12.87;3.63;;;;;;;-2.10;100.00;101017.19;5059830;28;20063;-87
2023/03/11 08:38:06;;;;;;;10.93;3.60;;;;;;;-2.00;100.00;101017.78;5053340;28;20088;-88
2023/03/11 08:40:31;;;;;;;10.17;3.50;;;;;;;-1.87;100.00;101021.72;5053377;28;20041;-88
2023/03/11 08:42:56;;;;;;;16.13;3.53;;;;;;;-1.87;100.00;101025.16;5051664;28;20124;-88
2023/03/11 08:45:22;;;;;;;10.60;2.80;;;;;;;-1.87;100.00;101022.50;5049636;28;20083;-87
2023/03/11 08:47:47;;;;;;;9.57;3.13;;;;;;;-1.88;100.00;101031.38;5051915;28;20025;-87
2023/03/11 08:50:16;;;;;;;16.80;3.90;;;;;;;-1.83;100.00;101033.53;5047145;28;20071;-86
2023/03/11 08:52:41;;;;;;;12.87;3.57;;;;;;;-1.85;100.00;101025.78;5054721;28;20091;-86
2023/03/11 08:55:10;;;;;;;10.53;3.63;;;;;;;-1.76;100.00;101039.72;5052876;28;20283;-86
2023/03/11 08:57:37;;;;;;;10.10;2.90;;;;;;;-1.74;100.00;101040.38;5035031;28;20053;-86
2023/03/11 09:00:03;;;;;;;6.18;2.47;;;;;;;-1.72;100.00;101038.38;5052206;28;20104;-86
2023/03/11 09:02:28;;;;;;;5.25;1.30;;;;;;;-1.72;100.00;101048.91;5054393;28;20054;-86
2023/03/11 09:04:54;;;;;;;5.83;1.37;;;;;;;-1.66;100.00;101051.84;5072147;28;20479;-87
2023/03/11 09:07:19;;;;;;;7.67;1.30;;;;;;;-1.63;100.00;101048.84;5072110;28;20047;-87
2023/03/11 09:09:44;;;;;;;9.40;1.47;;;;;;;-1.64;100.00;101055.13;5049562;28;20024;-87
2023/03/11 09:12:12;;;;;;;5.20;0.97;;;;;;;-1.60;100.00;101054.59;5052056;28;20021;-87
2023/03/11 09:14:41;;;;;;;3.08;0.95;;;;;;;-1.62;100.00;101045.22;5066969;28;20422;-87
2023/03/11 09:17:07;;;;;;;5.03;1.20;;;;;;;-1.55;100.00;101046.19;5071792;28;20064;-87
2023/03/11 09:19:33;;;;;;;4.93;1.53;;;;;;;-1.47;100.00;101048.78;5072363;28;20088;-87
2023/03/11 09:22:00;;;;;;;4.93;1.03;;;;;;;-1.41;100.00;101055.16;5072543;28;20389;-88
2023/03/11 09:24:25;;;;;;;11.50;1.20;;;;;;;-1.40;100.00;101054.97;5067049;28;20111;-88
2023/03/11 09:26:51;;;;;;;2.90;0.90;;;;;;;-1.41;100.00;101058.59;5054446;28;20111;-88
2023/03/11 09:29:16;;;;;;;5.33;0.90;;;;;;;-1.40;100.00;101054.97;5071912;28;20032;-88
2023/03/11 09:31:41;;;;;;;1.52;0.80;;;;;;;-1.30;100.00;101049.50;5071901;28;20131;-88
2023/03/11 09:34:06;;;;;;;9.43;1.30;;;;;;;-1.24;100.00;101063.75;5072177;28;20447;-88
2023/03/11 09:36:32;;;;;;;2.00;0.80;;;;;;;-1.18;100.00;101073.59;5072408;28;20078;-87
2023/03/11 09:38:57;;;;;;;7.00;1.03;;;;;;;-1.01;100.00;101078.75;5057913;28;20032;-87
2023/03/11 09:41:26;;;;;;;4.63;0.70;;;;;;;-0.84;100.00;101079.47;5063318;28;20017;-87
2023/03/11 09:43:51;;;;;;;4.05;0.68;;;;;;;-0.50;100.00;101081.66;5071547;28;20020;-87
2023/03/11 09:46:38;;;;;;;7.60;0.90;;;;;;;-0.17;100.00;101073.44;5053012;28;20403;-86
2023/03/11 09:49:24;;;;;;;3.20;0.85;;;;;;;0.25;100.00;101076.47;5051394;28;20061;-86
2023/03/11 09:52:05;;;;;;;4.38;0.60;;;;;;;0.63;100.00;101079.97;5051751;28;20063;-87
2023/03/11 09:54:39;;;;;;;7.68;0.73;;;;;;;0.85;100.00;101081.59;5049466;28;20395;-87
2023/03/11 09:57:08;;;;;;;8.77;0.80;;;;;;;1.03;100.00;101078.56;5051645;28;20029;-86
2023/03/11 09:59:35;;;;;;;3.87;0.57;;;;;;;1.19;100.00;101074.03;5051676;28;20033;-86
2023/03/11 10:02:02;;;;;;;4.67;0.50;;;;;;;1.40;100.00;101080.31;5051375;28;20758;-87
2023/03/11 10:04:44;;;;;;;1.80;0.55;;;;;;;1.64;100.00;101084.34;5033635;28;20029;-86
2023/03/11 10:07:20;;;;;;;7.15;1.00;;;;;;;1.91;100.00;101088.00;5071612;28;20025;-87
2023/03/11 10:09:49;;;;;;;3.17;0.50;;;;;;;2.16;100.00;101086.72;5062796;28;20032;-87
2023/03/11 10:12:17;;;;;;;7.45;0.85;;;;;;;2.28;100.00;101079.88;5049102;28;20395;-87
2023/03/11 10:14:42;;;;;;;5.50;0.60;;;;;;;2.35;100.00;101079.91;5051523;28;20525;-87
2023/03/11 10:17:16;;;;;;;5.43;0.47;;;;;;;2.37;100.00;101081.31;5050907;28;20362;-87
2023/03/11 10:19:58;;;;;;;2.43;0.70;;;;;;;2.45;100.00;101090.13;5050982;28;20021;-87
2023/03/11 10:22:37;;;;;;;5.00;1.13;;;;;;;2.41;100.00;101092.31;5051405;28;20272;-87
2023/03/11 10:25:17;;;;;;;8.65;0.70;;;;;;;2.50;100.00;101093.81;5032508;28;20025;-87
2023/03/11 10:27:48;;;;;;;4.57;0.50;;;;;;;2.52;100.00;101094.44;5050674;28;20135;-87
2023/03/11 10:30:39;;;;;;;5.78;0.70;;;;;;;2.62;100.00;101109.09;5050392;28;20440;-87
2023/03/11 10:33:25;;;;;;;4.10;0.50;;;;;;;2.76;100.00;101108.13;5032995;28;20056;-87
2023/03/11 10:35:53;;;;;;;5.30;0.40;;;;;;;2.78;100.00;101107.94;5032951;28;20104;-87
2023/03/11 10:38:21;;;;;;;6.53;0.50;;;;;;;2.83;100.00;101106.31;5053745;28;20330;-86
2023/03/11 10:40:51;;;;;;;2.60;0.40;;;;;;;2.90;100.00;101113.47;5062273;28;20041;-87
2023/03/11 10:43:25;;;;;;;6.90;0.70;;;;;;;3.03;100.00;101113.50;5032552;28;20052;-86
2023/03/11 10:45:52;;;;;;;2.47;0.50;;;;;;;3.24;100.00;101112.53;5050518;28;20029;-86
2023/03/11 10:48:18;;;;;;;4.57;0.50;;;;;;;3.48;100.00;101111.09;5051041;28;20448;-87
2023/03/11 10:50:51;;;;;;;2.30;0.67;;;;;;;3.64;100.00;101106.44;5058227;28;20032;-87
2023/03/11 10:53:19;;;;;;;5.57;0.80;;;;;;;3.77;100.00;101116.19;5065934;28;20751;-87
2023/03/11 10:55:47;;;;;;;2.45;0.40;;;;;;;3.65;100.00;101097.47;5070200;28;20032;-87
2023/03/11 10:58:17;;;;;;;4.00;0.70;;;;;;;3.70;100.00;101110.09;5070239;28;20055;-87
2023/03/11 11:00:42;;;;;;;2.90;0.70;;;;;;;3.79;100.00;101099.09;5070685;28;20494;-87
2023/03/11 11:03:21;;;;;;;4.27;0.90;;;;;;;3.89;100.00;101100.50;5070010;28;20044;-87
2023/03/11 11:05:58;;;;;;;5.40;0.60;;;;;;;3.87;100.00;101103.38;5067927;28;20031;-87
2023/03/11 11:08:23;;;;;;;5.68;0.80;;;;;;;3.92;100.00;101106.22;5038407;28;20618;-87
2023/03/11 11:11:00;;;;;;;3.97;0.70;;;;;;;4.14;100.00;101099.84;5061620;28;20025;-87
2023/03/11 11:13:33;;;;;;;3.88;0.70;;;;;;;4.44;100.00;101112.59;5050794;28;20017;-87
2023/03/11 11:16:19;;;;;;;2.05;0.50;;;;;;;4.53;100.00;101114.81;5031735;28;20487;-86